Time;durP1;ratioP1;P1;durP2;ratioP2;P2;SDS_P1;SDS_P2;PMS_P1;PMS_P2;Temp;Humidity;BMP_temperature;BMP_pressure;BME280_temperature;BME280_humidity;BME280_pressure;Samples;Min_cycle;Max_cycle;Signal;HPM_P1;HPM_P2
2023/10/14 00:04:40;;;;;;;;;;;;;;;;;;5033563;28;19927;-76
2023/10/14 00:07:08;;;;;;;;;;;;;;;;;;5031661;28;20294;-77
2023/10/14 00:09:42;;;;;;;;;;;;;;;;;;5027572;28;20892;-76
2023/10/14 00:12:15;;;;;;;;;;;;;;;;;;5032921;28;20422;-76
2023/10/14 00:14:43;;;;;;;;;;;;;;;;;;5031411;28;19971;-74
2023/10/14 00:17:18;;;;;;;;;;;;;;;;;;5033732;28;19929;-76
2023/10/14 00:19:55;;;;;;;;;;;;;;;;;;5028514;28;19964;-75
2023/10/14 00:22:23;;;;;;;;;;;;;;;;;;5011388;28;20421;-76
2023/10/14 00:24:52;;;;;;;;;;;;;;;;;;5015859;28;19931;-73
2023/10/14 00:27:19;;;;;;;;;;;;;;;;;;5008988;28;19921;-75
2023/10/14 00:29:45;;;;;;;;;;;;;;;;;;5016157;28;19928;-75
2023/10/14 00:32:12;;;;;;;;;;;;;;;;;;5009248;28;19979;-76
2023/10/14 00:34:38;;;;;;;;;;;;;;;;;;5019643;28;19927;-76
2023/10/14 00:37:09;;;;;;;;;;;;;;;;;;5008396;28;20899;-75
2023/10/14 00:39:36;;;;;;;;;;;;;;;;;;5008292;28;20018;-74
2023/10/14 00:42:03;;;;;;;;;;;;;;;;;;5016415;28;19921;-76
2023/10/14 00:44:30;;;;;;;;;;;;;;;;;;4996779;28;19932;-75
2023/10/14 00:46:57;;;;;;;;;;;;;;;;;;5029705;28;19921;-76
2023/10/14 00:49:35;;;;;;;;;;;;;;;;;;5018775;28;19924;-75
2023/10/14 00:52:01;;;;;;;;;;;;;;;;;;5015645;28;19929;-76
2023/10/14 00:54:51;;;;;;;;;;;;;;;;;;5009387;28;19925;-76
2023/10/14 00:59:44;;;;;;;;;;;;;;;;;;5007782;28;19925;-75
2023/10/14 01:02:11;;;;;;;;;;;;;;;;;;5007270;28;19925;-76
2023/10/14 01:04:40;;;;;;;;;;;;;;;;;;5015952;28;19953;-76
2023/10/14 01:07:13;;;;;;;;;;;;;;;;;;5012946;28;20084;-75
2023/10/14 01:12:54;;;;;;;;;;;;;;;;;;5007083;28;20403;-76
2023/10/14 01:15:00;;;;;;;;;;;;;;;;;;4998820;28;20492;-74
2023/10/14 01:17:29;;;;;;;;;;;;;;;;;;5022755;28;19972;-76
2023/10/14 01:19:59;;;;;;;;;;;;;;;;;;5010418;28;19926;-76
2023/10/14 01:22:26;;;;;;;;;;;;;;;;;;4989480;28;19932;-77
2023/10/14 01:24:57;;;;;;;;;;;;;;;;;;5021857;28;19925;-76
2023/10/14 01:27:25;;;;;;;;;;;;;;;;;;5035647;28;19928;-76
2023/10/14 01:29:52;;;;;;;;;;;;;;;;;;5016307;28;19943;-76
2023/10/14 01:32:24;;;;;;;;;;;;;;;;;;5033136;28;19928;-77
2023/10/14 01:34:59;;;;;;;;;;;;;;;;;;5026677;28;19924;-76
2023/10/14 01:37:27;;;;;;;;;;;;;;;;;;5016977;28;19921;-76
2023/10/14 01:39:57;;;;;;;;;;;;;;;;;;5042689;28;19925;-76
2023/10/14 01:42:23;;;;;;;;;;;;;;;;;;5025206;28;19924;-76
2023/10/14 01:44:53;;;;;;;;;;;;;;;;;;5031533;28;19970;-76
2023/10/14 01:47:21;;;;;;;;;;;;;;;;;;5022695;28;19959;-76
2023/10/14 01:49:47;;;;;;;;;;;;;;;;;;5029429;28;19921;-76
2023/10/14 01:52:19;;;;;;;;;;;;;;;;;;5030905;28;19983;-75
2023/10/14 01:54:47;;;;;;;;;;;;;;;;;;5000743;28;19925;-75
2023/10/14 01:57:17;;;;;;;;;;;;;;;;;;5006110;28;19964;-75
2023/10/14 01:59:44;;;;;;;;;;;;;;;;;;5010896;28;19971;-75
2023/10/14 02:02:11;;;;;;;;;;;;;;;;;;5009006;28;19936;-76
2023/10/14 02:04:43;;;;;;;;;;;;;;;;;;5015309;28;19932;-75
2023/10/14 02:07:18;;;;;;;;;;;;;;;;;;5007733;28;19960;-76
2023/10/14 02:09:44;;;;;;;;;;;;;;;;;;5015530;28;20383;-76
2023/10/14 02:12:12;;;;;;;;;;;;;;;;;;4988433;28;19937;-76
2023/10/14 02:14:38;;;;;;;;;;;;;;;;;;5039239;28;19921;-77
2023/10/14 02:17:05;;;;;;;;;;;;;;;;;;4998134;28;20389;-76
2023/10/14 02:21:59;;;;;;;;;;;;;;;;;;5021167;28;19952;-77
2023/10/14 02:24:27;;;;;;;;;;;;;;;;;;5023720;28;19924;-76
2023/10/14 02:26:54;;;;;;;;;;;;;;;;;;5026206;28;19975;-76
2023/10/14 02:29:23;;;;;;;;;;;;;;;;;;5024426;28;19936;-76
2023/10/14 02:31:50;;;;;;;;;;;;;;;;;;5023023;28;20922;-76
2023/10/14 02:34:18;;;;;;;;;;;;;;;;;;5027305;28;19921;-75
2023/10/14 02:36:51;;;;;;;;;;;;;;;;;;5010046;28;19925;-76
2023/10/14 02:39:22;;;;;;;;;;;;;;;;;;5033069;28;19921;-75
2023/10/14 02:41:59;;;;;;;;;;;;;;;;;;5032810;28;20443;-77
2023/10/14 02:44:28;;;;;;;;;;;;;;;;;;5023260;28;19951;-75
2023/10/14 02:46:55;;;;;;;;;;;;;;;;;;5028583;28;19922;-77
2023/10/14 02:49:25;;;;;;;;;;;;;;;;;;5001646;28;20602;-77
2023/10/14 02:51:52;;;;;;;;;;;;;;;;;;5017867;28;19928;-75
2023/10/14 02:54:28;;;;;;;;;;;;;;;;;;5005489;28;19972;-75
2023/10/14 02:59:23;;;;;;;;;;;;;;;;;;5033386;28;23185;-76
2023/10/14 03:04:44;;;;;;;;;;;;;;;;;;5020252;28;21864;-76
2023/10/14 03:07:15;;;;;;;;;;;;;;;;;;5014003;28;19990;-76
2023/10/14 03:09:42;;;;;;;;;;;;;;;;;;5036043;28;20349;-76
2023/10/14 03:12:08;;;;;;;;;;;;;;;;;;5037241;28;20485;-76
2023/10/14 03:14:40;;;;;;;;;;;;;;;;;;5030043;28;20405;-76
2023/10/14 03:17:07;;;;;;;;;;;;;;;;;;5041762;28;19970;-76
2023/10/14 03:19:34;;;;;;;;;;;;;;;;;;5028577;28;19928;-76
2023/10/14 03:22:00;;;;;;;;;;;;;;;;;;5030015;28;19921;-75
2023/10/14 03:24:30;;;;;;;;;;;;;;;;;;5029570;28;20391;-75
2023/10/14 03:27:04;;;;;;;;;;;;;;;;;;5029830;28;20055;-76
2023/10/14 03:29:31;;;;;;;;;;;;;;;;;;5036848;28;20426;-76
2023/10/14 03:31:58;;;;;;;;;;;;;;;;;;5032087;28;19921;-76
2023/10/14 03:34:33;;;;;;;;;;;;;;;;;;5009992;28;19944;-76
2023/10/14 03:37:00;;;;;;;;;;;;;;;;;;5008774;28;19928;-77
2023/10/14 03:40:33;;;;;;;;;;;;;;;;;;5004032;28;19928;-76
2023/10/14 03:42:32;;;;;;;;;;;;;;;;;;5040150;28;20514;-75
2023/10/14 03:44:59;;;;;;;;;;;;;;;;;;5013181;28;20879;-76
2023/10/14 03:47:34;;;;;;;;;;;;;;;;;;5022632;28;19921;-76
2023/10/14 03:50:00;;;;;;;;;;;;;;;;;;5028108;28;20020;-75
2023/10/14 03:52:28;;;;;;;;;;;;;;;;;;5029587;28;20722;-76
2023/10/14 03:54:54;;;;;;;;;;;;;;;;;;5027920;28;19971;-76
2023/10/14 03:57:32;;;;;;;;;;;;;;;;;;5029927;28;19929;-75
2023/10/14 04:00:09;;;;;;;;;;;;;;;;;;5028435;28;21764;-75
2023/10/14 04:02:40;;;;;;;;;;;;;;;;;;5021168;28;21580;-75
2023/10/14 04:05:11;;;;;;;;;;;;;;;;;;5027385;28;19944;-76
2023/10/14 04:07:40;;;;;;;;;;;;;;;;;;5025703;28;19922;-77
2023/10/14 04:10:09;;;;;;;;;;;;;;;;;;5027673;28;20107;-75
2023/10/14 04:17:45;;;;;;;;;;;;;;;;;;5026220;28;19944;-75
2023/10/14 04:27:45;;;;;;;;;;;;;;;;;;5028081;28;19931;-75
2023/10/14 04:30:12;;;;;;;;;;;;;;;;;;5027332;28;19932;-78
2023/10/14 04:32:43;;;;;;;;;;;;;;;;;;5029309;28;19928;-74
2023/10/14 04:35:12;;;;;;;;;;;;;;;;;;5027277;28;19925;-76
2023/10/14 04:37:52;;;;;;;;;;;;;;;;;;5035848;28;19925;-77
2023/10/14 04:43:11;;;;;;;;;;;;;;;;;;5027077;28;20595;-77
2023/10/14 04:45:37;;;;;;;;;;;;;;;;;;5027020;28;20602;-77
2023/10/14 04:48:05;;;;;;;;;;;;;;;;;;5027571;28;19921;-77
2023/10/14 04:50:33;;;;;;;;;;;;;;;;;;5025490;28;21716;-77
2023/10/14 04:52:59;;;;;;;;;;;;;;;;;;5029119;28;19921;-77
2023/10/14 04:55:32;;;;;;;;;;;;;;;;;;5029592;28;19942;-77
2023/10/14 05:00:43;;;;;;;;;;;;;;;;;;5035943;28;20314;-77
2023/10/14 05:03:11;;;;;;;;;;;;;;;;;;5036313;28;21805;-77
2023/10/14 05:05:41;;;;;;;;;;;;;;;;;;5040299;28;19921;-77
2023/10/14 05:08:12;;;;;;;;;;;;;;;;;;5036659;28;19929;-77
2023/10/14 05:10:42;;;;;;;;;;;;;;;;;;5057065;28;20019;-75
2023/10/14 05:13:09;;;;;;;;;;;;;;;;;;5028941;28;19921;-78
2023/10/14 05:15:40;;;;;;;;;;;;;;;;;;5036052;28;21456;-78
2023/10/14 05:18:07;;;;;;;;;;;;;;;;;;5017286;28;19921;-78
2023/10/14 05:23:30;;;;;;;;;;;;;;;;;;5011288;28;21741;-77
2023/10/14 05:25:57;;;;;;;;;;;;;;;;;;5013271;28;19944;-77
2023/10/14 05:28:29;;;;;;;;;;;;;;;;;;5015193;28;19932;-77
2023/10/14 05:30:57;;;;;;;;;;;;;;;;;;5012266;28;19925;-76
2023/10/14 05:33:24;;;;;;;;;;;;;;;;;;5006917;28;19928;-76
2023/10/14 05:35:51;;;;;;;;;;;;;;;;;;5012203;28;19921;-71
2023/10/14 05:38:19;;;;;;;;;;;;;;;;;;5006570;28;19927;-71
2023/10/14 05:40:46;;;;;;;;;;;;;;;;;;5007467;28;19971;-73
2023/10/14 05:43:12;;;;;;;;;;;;;;;;;;5007665;28;19929;-73
2023/10/14 05:45:39;;;;;;;;;;;;;;;;;;5008493;28;19925;-77
2023/10/14 05:48:09;;;;;;;;;;;;;;;;;;5010343;28;19952;-77
2023/10/14 05:50:36;;;;;;;;;;;;;;;;;;5015454;28;19932;-77
2023/10/14 05:53:07;;;;;;;;;;;;;;;;;;5035405;28;19921;-76
2023/10/14 05:55:34;;;;;;;;;;;;;;;;;;5010131;28;19952;-77
2023/10/14 05:58:01;;;;;;;;;;;;;;;;;;5009698;28;20464;-76
2023/10/14 06:00:30;;;;;;;;;;;;;;;;;;5020606;28;19921;-77
2023/10/14 06:02:57;;;;;;;;;;;;;;;;;;5016533;28;19921;-77
2023/10/14 06:05:23;;;;;;;;;;;;;;;;;;5008695;28;19925;-75
2023/10/14 06:07:50;;;;;;;;;;;;;;;;;;5015488;28;19961;-75
2023/10/14 06:10:23;;;;;;;;;;;;;;;;;;5020789;28;20008;-77
2023/10/14 06:12:53;;;;;;;;;;;;;;;;;;5022103;28;19987;-76
2023/10/14 06:15:19;;;;;;;;;;;;;;;;;;5015171;28;19925;-76
2023/10/14 06:17:46;;;;;;;;;;;;;;;;;;5015107;28;19991;-77
2023/10/14 06:20:14;;;;;;;;;;;;;;;;;;5004908;28;19921;-76
2023/10/14 06:22:41;;;;;;;;;;;;;;;;;;5004952;28;20392;-77
2023/10/14 06:25:07;;;;;;;;;;;;;;;;;;5034319;28;19930;-76
2023/10/14 06:27:34;;;;;;;;;;;;;;;;;;5012406;28;20376;-77
2023/10/14 06:30:01;;;;;;;;;;;;;;;;;;5009465;28;19921;-77
2023/10/14 06:32:29;;;;;;;;;;;;;;;;;;5001360;28;20402;-77
2023/10/14 06:34:58;;;;;;;;;;;;;;;;;;5008323;28;19925;-76
2023/10/14 06:37:26;;;;;;;;;;;;;;;;;;5023568;28;19929;-76
2023/10/14 06:39:54;;;;;;;;;;;;;;;;;;5012818;28;19932;-77
2023/10/14 06:42:22;;;;;;;;;;;;;;;;;;5018360;28;19924;-77
2023/10/14 06:44:48;;;;;;;;;;;;;;;;;;5015142;28;19931;-78
2023/10/14 06:47:18;;;;;;;;;;;;;;;;;;5009846;28;20523;-76
2023/10/14 06:49:45;;;;;;;;;;;;;;;;;;5043308;28;19927;-77
2023/10/14 06:52:12;;;;;;;;;;;;;;;;;;5017760;28;19928;-77
2023/10/14 06:54:41;;;;;;;;;;;;;;;;;;5011124;28;20012;-77
2023/10/14 06:57:07;;;;;;;;;;;;;;;;;;5013516;28;19925;-75
2023/10/14 06:59:36;;;;;;;;;;;;;;;;;;5033326;28;19940;-77
2023/10/14 07:02:02;;;;;;;;;;;;;;;;;;5014059;28;19943;-77
2023/10/14 07:04:29;;;;;;;;;;;;;;;;;;5010739;28;19936;-76
2023/10/14 07:06:58;;;;;;;;;;;;;;;;;;5001337;28;19960;-77
2023/10/14 07:09:27;;;;;;;;;;;;;;;;;;5018060;28;19928;-77
2023/10/14 07:11:55;;;;;;;;;;;;;;;;;;5023487;28;20006;-77
2023/10/14 07:14:23;;;;;;;;;;;;;;;;;;5025480;28;19925;-77
2023/10/14 07:16:50;;;;;;;;;;;;;;;;;;5023959;28;19935;-77
2023/10/14 07:19:20;;;;;;;;;;;;;;;;;;5028571;28;19925;-77
2023/10/14 07:21:47;;;;;;;;;;;;;;;;;;5030195;28;19931;-77
2023/10/14 07:24:14;;;;;;;;;;;;;;;;;;5032926;28;20455;-75
2023/10/14 07:26:41;;;;;;;;;;;;;;;;;;5034516;28;19924;-76
2023/10/14 07:29:08;;;;;;;;;;;;;;;;;;5034600;28;20016;-77
2023/10/14 07:31:38;;;;;;;;;;;;;;;;;;5026653;28;19925;-76
2023/10/14 07:34:08;;;;;;;;;;;;;;;;;;5016091;28;20002;-77
2023/10/14 07:36:35;;;;;;;;;;;;;;;;;;5011080;28;19925;-77
2023/10/14 07:41:52;;;;;;;;;;;;;;;;;;5008436;28;19932;-76
2023/10/14 07:44:19;;;;;;;;;;;;;;;;;;5008811;28;19936;-76
2023/10/14 07:46:46;;;;;;;;;;;;;;;;;;5038256;28;20299;-76
2023/10/14 07:49:14;;;;;;;;;;;;;;;;;;5027989;28;20345;-74
2023/10/14 07:51:42;;;;;;;;;;;;;;;;;;4989070;28;19947;-76
2023/10/14 07:54:09;;;;;;;;;;;;;;;;;;5014856;28;19925;-74
2023/10/14 07:56:35;;;;;;;;;;;;;;;;;;5003371;28;19925;-77
2023/10/14 07:59:02;;;;;;;;;;;;;;;;;;5009266;28;19928;-76
2023/10/14 08:01:28;;;;;;;;;;;;;;;;;;5013571;28;20387;-77
2023/10/14 08:03:58;;;;;;;;;;;;;;;;;;5004790;28;19922;-75
2023/10/14 08:06:25;;;;;;;;;;;;;;;;;;5005172;28;20744;-76
2023/10/14 08:08:51;;;;;;;;;;;;;;;;;;5010706;28;19978;-74
2023/10/14 08:11:18;;;;;;;;;;;;;;;;;;5003871;28;19929;-77
2023/10/14 08:13:44;;;;;;;;;;;;;;;;;;5005373;28;19925;-76
2023/10/14 08:16:11;;;;;;;;;;;;;;;;;;5005311;28;19961;-77
2023/10/14 08:18:41;;;;;;;;;;;;;;;;;;5010847;28;19921;-77
2023/10/14 08:21:11;;;;;;;;;;;;;;;;;;5010167;28;19921;-73
2023/10/14 08:23:38;;;;;;;;;;;;;;;;;;5009779;28;20327;-74
2023/10/14 08:26:12;;;;;;;;;;;;;;;;;;5007312;28;19991;-76
2023/10/14 08:28:40;;;;;;;;;;;;;;;;;;4998605;28;19928;-75
2023/10/14 08:31:08;;;;;;;;;;;;;;;;;;5010427;28;19991;-75
2023/10/14 08:33:36;;;;;;;;;;;;;;;;;;4985306;28;19921;-76
2023/10/14 08:36:03;;;;;;;;;;;;;;;;;;5019239;28;19921;-77
2023/10/14 08:38:29;;;;;;;;;;;;;;;;;;5001696;28;20016;-77
2023/10/14 08:40:56;;;;;;;;;;;;;;;;;;5009030;28;21759;-76
2023/10/14 08:43:23;;;;;;;;;;;;;;;;;;5011982;28;19975;-76
2023/10/14 08:45:49;;;;;;;;;;;;;;;;;;5008228;28;19952;-77
2023/10/14 08:48:16;;;;;;;;;;;;;;;;;;5010784;28;19932;-75
2023/10/14 08:50:42;;;;;;;;;;;;;;;;;;5007146;28;20615;-77
2023/10/14 08:53:15;;;;;;;;;;;;;;;;;;5007463;28;20006;-77
2023/10/14 08:55:44;;;;;;;;;;;;;;;;;;5008581;28;19921;-77
2023/10/14 08:58:13;;;;;;;;;;;;;;;;;;5007049;28;19941;-77
2023/10/14 09:00:40;;;;;;;;;;;;;;;;;;5009423;28;19929;-77
2023/10/14 09:03:07;;;;;;;;;;;;;;;;;;5007705;28;19925;-77
2023/10/14 09:05:33;;;;;;;;;;;;;;;;;;4991291;28;19921;-78
2023/10/14 09:08:00;;;;;;;;;;;;;;;;;;5009976;28;20454;-75
2023/10/14 09:10:26;;;;;;;;;;;;;;;;;;5008122;28;19922;-75
2023/10/14 09:12:54;;;;;;;;;;;;;;;;;;5008092;28;19925;-78
2023/10/14 09:15:38;;;;;;;;;;;;;;;;;;5008005;28;19925;-76
2023/10/14 09:18:07;;;;;;;;;;;;;;;;;;5007571;28;20351;-77
2023/10/14 09:20:35;;;;;;;;;;;;;;;;;;5008110;28;20299;-77
2023/10/14 09:23:01;;;;;;;;;;;;;;;;;;5007959;28;19998;-77
2023/10/14 09:25:28;;;;;;;;;;;;;;;;;;5006713;28;19932;-77
2023/10/14 09:27:54;;;;;;;;;;;;;;;;;;5007110;28;19928;-77
2023/10/14 09:30:21;;;;;;;;;;;;;;;;;;5007879;28;19979;-77
2023/10/14 09:32:50;;;;;;;;;;;;;;;;;;5008220;28;19922;-77
2023/10/14 09:35:17;;;;;;;;;;;;;;;;;;5007515;28;19928;-77
2023/10/14 09:37:43;;;;;;;;;;;;;;;;;;5008055;28;19976;-77
2023/10/14 09:40:13;;;;;;;;;;;;;;;;;;5006838;28;20527;-76
2023/10/14 09:42:39;;;;;;;;;;;;;;;;;;5007935;28;19921;-77
2023/10/14 09:45:12;;;;;;;;;;;;;;;;;;5009449;28;20558;-77
2023/10/14 09:47:38;;;;;;;;;;;;;;;;;;5007688;28;20513;-77
2023/10/14 09:50:05;;;;;;;;;;;;;;;;;;5007785;28;19921;-76
2023/10/14 09:52:32;;;;;;;;;;;;;;;;;;5014187;28;19988;-77
2023/10/14 09:54:59;;;;;;;;;;;;;;;;;;5027195;28;19929;-76
2023/10/14 09:57:25;;;;;;;;;;;;;;;;;;5025564;28;19984;-76
2023/10/14 09:59:52;;;;;;;;;;;;;;;;;;5022806;28;19975;-76
2023/10/14 10:02:18;;;;;;;;;;;;;;;;;;5023111;28;19997;-77
2023/10/14 10:04:47;;;;;;;;;;;;;;;;;;5025587;28;19925;-77
2023/10/14 10:07:16;;;;;;;;;;;;;;;;;;5008245;28;19979;-76
2023/10/14 10:09:42;;;;;;;;;;;;;;;;;;5026614;28;19960;-77
2023/10/14 10:12:10;;;;;;;;;;;;;;;;;;5024917;28;19932;-76
2023/10/14 10:14:36;;;;;;;;;;;;;;;;;;5025400;28;20625;-76
2023/10/14 10:17:08;;;;;;;;;;;;;;;;;;5025594;28;19981;-76
2023/10/14 10:19:35;;;;;;;;;;;;;;;;;;5020374;28;19972;-76
2023/10/14 10:22:02;;;;;;;;;;;;;;;;;;5022090;28;19957;-77
2023/10/14 10:24:28;;;;;;;;;;;;;;;;;;5009391;28;19925;-77
2023/10/14 10:26:55;;;;;;;;;;;;;;;;;;5008540;28;19921;-77
2023/10/14 10:29:22;;;;;;;;;;;;;;;;;;5008011;28;19922;-77
2023/10/14 10:31:49;;;;;;;;;;;;;;;;;;5009126;28;20413;-76
2023/10/14 10:34:18;;;;;;;;;;;;;;;;;;5009673;28;19933;-77
2023/10/14 10:36:47;;;;;;;;;;;;;;;;;;5006301;28;19936;-76
2023/10/14 10:39:19;;;;;;;;;;;;;;;;;;5007241;28;19922;-76
2023/10/14 10:41:47;;;;;;;;;;;;;;;;;;5007280;28;20004;-76
2023/10/14 10:44:13;;;;;;;;;;;;;;;;;;5007669;28;19921;-76
2023/10/14 10:46:40;;;;;;;;;;;;;;;;;;5006750;28;19930;-77
2023/10/14 10:49:07;;;;;;;;;;;;;;;;;;5005942;28;19925;-77
2023/10/14 10:51:33;;;;;;;;;;;;;;;;;;5007337;28;19921;-76
2023/10/14 10:54:00;;;;;;;;;;;;;;;;;;5007149;28;20013;-76
2023/10/14 10:56:28;;;;;;;;;;;;;;;;;;5006555;28;19979;-76
2023/10/14 10:58:55;;;;;;;;;;;;;;;;;;5006877;28;19928;-77
2023/10/14 11:01:21;;;;;;;;;;;;;;;;;;5005371;28;19921;-75
2023/10/14 11:03:49;;;;;;;;;;;;;;;;;;5010159;28;19928;-77
2023/10/14 11:06:17;;;;;;;;;;;;;;;;;;5006882;28;19925;-77
2023/10/14 11:08:47;;;;;;;;;;;;;;;;;;5008929;28;19927;-77
2023/10/14 11:11:14;;;;;;;;;;;;;;;;;;5033677;28;20694;-77
2023/10/14 11:13:42;;;;;;;;;;;;;;;;;;5007688;28;19921;-77
2023/10/14 11:16:14;;;;;;;;;;;;;;;;;;4994957;28;19925;-77
2023/10/14 11:18:41;;;;;;;;;;;;;;;;;;5013198;28;19926;-78
2023/10/14 11:21:08;;;;;;;;;;;;;;;;;;5012436;28;19922;-77
2023/10/14 11:23:39;;;;;;;;;;;;;;;;;;5011153;28;19945;-78
2023/10/14 11:26:07;;;;;;;;;;;;;;;;;;5012991;28;19921;-78
2023/10/14 11:28:37;;;;;;;;;;;;;;;;;;5016597;28;20028;-78
2023/10/14 11:31:07;;;;;;;;;;;;;;;;;;5015180;28;19928;-78
2023/10/14 11:33:36;;;;;;;;;;;;;;;;;;5013595;28;19928;-77
2023/10/14 11:36:03;;;;;;;;;;;;;;;;;;5013737;28;20414;-78
2023/10/14 11:38:30;;;;;;;;;;;;;;;;;;5014321;28;19921;-78
2023/10/14 11:40:58;;;;;;;;;;;;;;;;;;5013694;28;19921;-79
2023/10/14 11:43:24;;;;;;;;;;;;;;;;;;5012583;28;20514;-78
2023/10/14 11:45:52;;;;;;;;;;;;;;;;;;5013296;28;19922;-78
2023/10/14 11:48:20;;;;;;;;;;;;;;;;;;5017097;28;19921;-79
2023/10/14 11:50:47;;;;;;;;;;;;;;;;;;5041619;28;19921;-79
2023/10/14 11:53:14;;;;;;;;;;;;;;;;;;4997655;28;19921;-79
2023/10/14 11:55:41;;;;;;;;;;;;;;;;;;5015439;28;19935;-78
2023/10/14 11:58:08;;;;;;;;;;;;;;;;;;5015774;28;19925;-78
2023/10/14 12:00:34;;;;;;;;;;;;;;;;;;5014797;28;19922;-79
2023/10/14 12:03:05;;;;;;;;;;;;;;;;;;4997682;28;20376;-78
2023/10/14 12:05:39;;;;;;;;;;;;;;;;;;5007890;28;19921;-79
2023/10/14 12:08:08;;;;;;;;;;;;;;;;;;5015351;28;19925;-79
2023/10/14 12:10:34;;;;;;;;;;;;;;;;;;5013938;28;20387;-78
2023/10/14 12:13:03;;;;;;;;;;;;;;;;;;5014919;28;19921;-78
2023/10/14 12:15:35;;;;;;;;;;;;;;;;;;5012270;28;19929;-78
2023/10/14 12:18:01;;;;;;;;;;;;;;;;;;5011881;28;19921;-78
2023/10/14 12:20:31;;;;;;;;;;;;;;;;;;5012280;28;19967;-78
2023/10/14 12:22:58;;;;;;;;;;;;;;;;;;5013660;28;19921;-78
2023/10/14 12:25:24;;;;;;;;;;;;;;;;;;4995889;28;19921;-78
2023/10/14 12:27:51;;;;;;;;;;;;;;;;;;5014694;28;19921;-78
2023/10/14 12:30:40;;;;;;;;;;;;;;;;;;5012941;28;19928;-78
2023/10/14 12:33:07;;;;;;;;;;;;;;;;;;5032276;28;20682;-77
2023/10/14 12:35:34;;;;;;;;;;;;;;;;;;5035921;28;19928;-78
2023/10/14 12:38:01;;;;;;;;;;;;;;;;;;5032470;28;20386;-79
2023/10/14 12:40:30;;;;;;;;;;;;;;;;;;5033369;28;19929;-79
2023/10/14 12:43:01;;;;;;;;;;;;;;;;;;5031292;28;19978;-79
2023/10/14 12:45:28;;;;;;;;;;;;;;;;;;5034980;28;19928;-78
2023/10/14 12:48:09;;;;;;;;;;;;;;;;;;5032372;28;19952;-78
2023/10/14 12:50:41;;;;;;;;;;;;;;;;;;5013863;28;19965;-78
2023/10/14 12:53:08;;;;;;;;;;;;;;;;;;5032014;28;19947;-79
2023/10/14 12:55:36;;;;;;;;;;;;;;;;;;5031848;28;19920;-78
2023/10/14 12:58:02;;;;;;;;;;;;;;;;;;5035014;28;19941;-78
2023/10/14 13:00:29;;;;;;;;;;;;;;;;;;5033528;28;19925;-78
2023/10/14 13:02:56;;;;;;;;;;;;;;;;;;5032308;28;20066;-78
2023/10/14 13:05:22;;;;;;;;;;;;;;;;;;5031543;28;19974;-79
2023/10/14 13:07:52;;;;;;;;;;;;;;;;;;5031590;28;20378;-78
2023/10/14 13:10:18;;;;;;;;;;;;;;;;;;5036610;28;19984;-79
2023/10/14 13:12:45;;;;;;;;;;;;;;;;;;5032417;28;19983;-78
2023/10/14 13:15:12;;;;;;;;;;;;;;;;;;5030171;28;20307;-78
2023/10/14 13:17:38;;;;;;;;;;;;;;;;;;5031875;28;19921;-78
2023/10/14 13:20:08;;;;;;;;;;;;;;;;;;5029824;28;19936;-79
2023/10/14 13:22:35;;;;;;;;;;;;;;;;;;5031483;28;19940;-79
2023/10/14 13:25:02;;;;;;;;;;;;;;;;;;5030351;28;19921;-78
2023/10/14 13:27:29;;;;;;;;;;;;;;;;;;5031405;28;19925;-79
2023/10/14 13:29:55;;;;;;;;;;;;;;;;;;5033057;28;20688;-78
2023/10/14 13:32:24;;;;;;;;;;;;;;;;;;5030926;28;19952;-78
2023/10/14 13:34:53;;;;;;;;;;;;;;;;;;5032485;28;19929;-78
2023/10/14 13:37:20;;;;;;;;;;;;;;;;;;5031985;28;19921;-78
2023/10/14 13:39:46;;;;;;;;;;;;;;;;;;5030517;28;19928;-77
2023/10/14 13:42:13;;;;;;;;;;;;;;;;;;5052529;28;20003;-78
2023/10/14 13:44:39;;;;;;;;;;;;;;;;;;5032378;28;19932;-79
2023/10/14 13:47:06;;;;;;;;;;;;;;;;;;5034838;28;20768;-78
2023/10/14 13:49:33;;;;;;;;;;;;;;;;;;5016996;28;19920;-79
2023/10/14 13:51:59;;;;;;;;;;;;;;;;;;5036345;28;19928;-78
2023/10/14 13:54:26;;;;;;;;;;;;;;;;;;5033680;28;20415;-78
2023/10/14 13:56:55;;;;;;;;;;;;;;;;;;5031390;28;19924;-78
2023/10/14 13:59:22;;;;;;;;;;;;;;;;;;5033182;28;19928;-78
2023/10/14 14:01:49;;;;;;;;;;;;;;;;;;5037180;28;19921;-79
2023/10/14 14:04:17;;;;;;;;;;;;;;;;;;5029685;28;19927;-79
2023/10/14 14:06:44;;;;;;;;;;;;;;;;;;5032418;28;19960;-79
2023/10/14 14:09:11;;;;;;;;;;;;;;;;;;5032356;28;19921;-78
2023/10/14 14:11:37;;;;;;;;;;;;;;;;;;5030542;28;19974;-79
2023/10/14 14:14:04;;;;;;;;;;;;;;;;;;5031266;28;19921;-78
2023/10/14 14:16:30;;;;;;;;;;;;;;;;;;5031981;28;21838;-78
2023/10/14 14:19:00;;;;;;;;;;;;;;;;;;5031921;28;19921;-78
2023/10/14 14:21:26;;;;;;;;;;;;;;;;;;5023966;28;19929;-78
2023/10/14 14:23:54;;;;;;;;;;;;;;;;;;5034066;28;19980;-78
2023/10/14 14:26:21;;;;;;;;;;;;;;;;;;5029756;28;19925;-78
2023/10/14 14:28:49;;;;;;;;;;;;;;;;;;5032663;28;19921;-77
2023/10/14 14:31:16;;;;;;;;;;;;;;;;;;5029967;28;19921;-77
2023/10/14 14:33:45;;;;;;;;;;;;;;;;;;5031434;28;19921;-78
2023/10/14 14:36:11;;;;;;;;;;;;;;;;;;5031052;28;20047;-78
2023/10/14 14:38:38;;;;;;;;;;;;;;;;;;5030754;28;19920;-78
2023/10/14 14:41:07;;;;;;;;;;;;;;;;;;5031334;28;19921;-78
2023/10/14 14:43:34;;;;;;;;;;;;;;;;;;5032111;28;20280;-78
2023/10/14 14:46:00;;;;;;;;;;;;;;;;;;5030196;28;19964;-78
2023/10/14 14:48:27;;;;;;;;;;;;;;;;;;5030478;28;20421;-78
2023/10/14 14:50:54;;;;;;;;;;;;;;;;;;5030273;28;20578;-77
2023/10/14 14:53:20;;;;;;;;;;;;;;;;;;5031412;28;19921;-78
2023/10/14 14:55:47;;;;;;;;;;;;;;;;;;5029242;28;19927;-78
2023/10/14 14:58:14;;;;;;;;;;;;;;;;;;5027894;28;19955;-77
2023/10/14 15:00:45;;;;;;;;;;;;;;;;;;5029259;28;19927;-78
2023/10/14 15:03:11;;;;;;;;;;;;;;;;;;5033135;28;19928;-78
2023/10/14 15:05:38;;;;;;;;;;;;;;;;;;5031594;28;19982;-78
2023/10/14 15:08:04;;;;;;;;;;;;;;;;;;5033946;28;20306;-77
2023/10/14 15:10:33;;;;;;;;;;;;;;;;;;5033076;28;19999;-77
2023/10/14 15:13:02;;;;;;;;;;;;;;;;;;5034075;28;19921;-78
2023/10/14 15:15:29;;;;;;;;;;;;;;;;;;5032859;28;19929;-78
2023/10/14 15:17:55;;;;;;;;;;;;;;;;;;5033957;28;19931;-78
2023/10/14 15:20:22;;;;;;;;;;;;;;;;;;5030969;28;20378;-78
2023/10/14 15:22:49;;;;;;;;;;;;;;;;;;5030849;28;19925;-78
2023/10/14 15:25:15;;;;;;;;;;;;;;;;;;5034911;28;19948;-77
2023/10/14 15:27:45;;;;;;;;;;;;;;;;;;5034028;28;19921;-77
2023/10/14 15:30:11;;;;;;;;;;;;;;;;;;5051181;28;20910;-77
2023/10/14 15:32:38;;;;;;;;;;;;;;;;;;5013771;28;19921;-78
2023/10/14 15:35:06;;;;;;;;;;;;;;;;;;5010752;28;20403;-78
2023/10/14 15:37:32;;;;;;;;;;;;;;;;;;5014202;28;19921;-78
2023/10/14 15:39:59;;;;;;;;;;;;;;;;;;5011356;28;19936;-77
2023/10/14 15:42:26;;;;;;;;;;;;;;;;;;5011440;28;19922;-77
2023/10/14 15:44:54;;;;;;;;;;;;;;;;;;5011901;28;19928;-77
2023/10/14 15:47:21;;;;;;;;;;;;;;;;;;5014008;28;19921;-77
2023/10/14 15:49:47;;;;;;;;;;;;;;;;;;5014063;28;20379;-77
2023/10/14 15:52:14;;;;;;;;;;;;;;;;;;5014631;28;19936;-77
2023/10/14 15:54:47;;;;;;;;;;;;;;;;;;5016422;28;20387;-77
2023/10/14 15:57:14;;;;;;;;;;;;;;;;;;5013329;28;20237;-78
2023/10/14 15:59:41;;;;;;;;;;;;;;;;;;5012246;28;20626;-78
2023/10/14 16:02:07;;;;;;;;;;;;;;;;;;5013346;28;20000;-77
2023/10/14 16:04:34;;;;;;;;;;;;;;;;;;4996196;28;19925;-77
2023/10/14 16:07:01;;;;;;;;;;;;;;;;;;5012719;28;20391;-77
2023/10/14 16:09:28;;;;;;;;;;;;;;;;;;5012203;28;19922;-77
2023/10/14 16:11:56;;;;;;;;;;;;;;;;;;5036804;28;19921;-77
2023/10/14 16:14:25;;;;;;;;;;;;;;;;;;5012043;28;20143;-77
2023/10/14 16:16:53;;;;;;;;;;;;;;;;;;5022961;28;20486;-77
2023/10/14 16:19:20;;;;;;;;;;;;;;;;;;5015142;28;20012;-76
2023/10/14 16:21:47;;;;;;;;;;;;;;;;;;5012197;28;20399;-76
2023/10/14 16:24:13;;;;;;;;;;;;;;;;;;5015774;28;20008;-76
2023/10/14 16:26:40;;;;;;;;;;;;;;;;;;5049021;28;19941;-78
2023/10/14 16:29:08;;;;;;;;;;;;;;;;;;5037623;28;20441;-76
2023/10/14 16:31:35;;;;;;;;;;;;;;;;;;5022990;28;19959;-76
2023/10/14 16:34:02;;;;;;;;;;;;;;;;;;5024381;28;19921;-76
2023/10/14 16:36:29;;;;;;;;;;;;;;;;;;5016603;28;19921;-77
2023/10/14 16:38:55;;;;;;;;;;;;;;;;;;5012034;28;19937;-76
2023/10/14 16:41:22;;;;;;;;;;;;;;;;;;5007297;28;19976;-74
2023/10/14 16:43:49;;;;;;;;;;;;;;;;;;5012188;28;20387;-75
2023/10/14 16:46:16;;;;;;;;;;;;;;;;;;5015560;28;19964;-79
2023/10/14 16:48:43;;;;;;;;;;;;;;;;;;5008568;28;19933;-76
2023/10/14 16:51:10;;;;;;;;;;;;;;;;;;5007195;28;20072;-76
2023/10/14 16:53:37;;;;;;;;;;;;;;;;;;5021720;28;19990;-77
2023/10/14 16:56:04;;;;;;;;;;;;;;;;;;5023983;28;19924;-76
2023/10/14 16:58:30;;;;;;;;;;;;;;;;;;5035509;28;20477;-76
2023/10/14 17:00:57;;;;;;;;;;;;;;;;;;5028305;28;20330;-75
2023/10/14 17:03:25;;;;;;;;;;;;;;;;;;5030248;28;19925;-75
2023/10/14 17:05:52;;;;;;;;;;;;;;;;;;5029771;28;19924;-76
2023/10/14 17:08:18;;;;;;;;;;;;;;;;;;5007567;28;21937;-75
2023/10/14 17:10:45;;;;;;;;;;;;;;;;;;5004474;28;19925;-76
2023/10/14 17:13:13;;;;;;;;;;;;;;;;;;5023378;28;19968;-77
2023/10/14 17:15:41;;;;;;;;;;;;;;;;;;5024441;28;19925;-77
2023/10/14 17:18:08;;;;;;;;;;;;;;;;;;5024631;28;19925;-77
2023/10/14 17:20:39;;;;;;;;;;;;;;;;;;5027365;28;19983;-76
2023/10/14 17:23:06;;;;;;;;;;;;;;;;;;5023929;28;19924;-78
2023/10/14 17:25:32;;;;;;;;;;;;;;;;;;5025557;28;19929;-76
2023/10/14 17:27:59;;;;;;;;;;;;;;;;;;5025813;28;19925;-77
2023/10/14 17:30:29;;;;;;;;;;;;;;;;;;5024606;28;19935;-78
2023/10/14 17:32:55;;;;;;;;;;;;;;;;;;5024459;28;20011;-76